createdAt,value
2023-09-24T00:00:59.281Z,4.57
2023-09-24T00:03:27.190Z,3.75
2023-09-24T00:05:54.490Z,3.50
2023-09-24T00:08:21.542Z,2.85
2023-09-24T00:10:51.804Z,4.53
2023-09-24T00:13:18.537Z,3.47
2023-09-24T00:15:45.264Z,3.58
2023-09-24T00:18:11.916Z,3.83
2023-09-24T00:20:38.886Z,3.08
2023-09-24T00:23:05.407Z,3.50
2023-09-24T00:25:31.986Z,3.20
2023-09-24T00:27:58.597Z,2.70
2023-09-24T00:30:25.251Z,6.00
2023-09-24T00:32:54.939Z,2.55
2023-09-24T00:35:23.683Z,3.93
2023-09-24T00:37:50.432Z,3.53
2023-09-24T00:40:16.970Z,3.28
2023-09-24T00:42:43.572Z,2.80
2023-09-24T00:45:12.841Z,2.97
2023-09-24T00:47:45.624Z,2.80
2023-09-24T00:50:13.297Z,2.67
2023-09-24T00:52:43.525Z,2.00
2023-09-24T00:55:14.317Z,3.25
2023-09-24T00:57:42.166Z,4.38
2023-09-24T01:00:12.888Z,3.47
2023-09-24T01:02:40.734Z,2.58
2023-09-24T01:05:11.524Z,4.45
2023-09-24T01:07:40.755Z,3.72
2023-09-24T01:10:12.271Z,3.05
2023-09-24T01:12:40.944Z,4.80
2023-09-24T01:15:14.267Z,2.97
2023-09-24T01:17:40.951Z,4.00
2023-09-24T01:20:13.294Z,3.70
2023-09-24T01:22:41.586Z,4.57
2023-09-24T01:25:08.597Z,4.03
2023-09-24T01:27:36.646Z,3.72
2023-09-24T01:30:07.288Z,4.00
2023-09-24T01:32:34.140Z,4.47
2023-09-24T01:35:07.355Z,3.35
2023-09-24T01:37:35.172Z,4.50
2023-09-24T01:40:08.351Z,3.58
2023-09-24T01:42:35.595Z,4.70
2023-09-24T01:45:02.179Z,2.60
2023-09-24T01:47:29.772Z,3.92
2023-09-24T01:49:58.145Z,4.17
2023-09-24T01:52:24.679Z,3.35
2023-09-24T01:54:51.889Z,5.30
2023-09-24T01:57:19.999Z,4.18
2023-09-24T01:59:46.578Z,4.30
2023-09-24T02:02:14.409Z,5.27
2023-09-24T02:04:40.963Z,4.75
2023-09-24T02:07:09.344Z,3.70
2023-09-24T02:09:36.762Z,3.63
2023-09-24T02:12:03.409Z,4.68
2023-09-24T02:14:30.526Z,4.27
2023-09-24T02:16:57.109Z,4.68
2023-09-24T02:19:26.063Z,5.10
2023-09-24T02:21:52.591Z,5.72
2023-09-24T02:24:19.783Z,5.30
2023-09-24T02:26:46.337Z,6.10
2023-09-24T02:29:12.909Z,6.60
2023-09-24T02:31:39.609Z,5.63
2023-09-24T02:34:07.278Z,5.57
2023-09-24T02:36:33.773Z,5.90
2023-09-24T02:39:00.444Z,8.43
2023-09-24T02:41:26.979Z,4.13
2023-09-24T02:43:55.928Z,5.47
2023-09-24T02:46:22.491Z,6.43
2023-09-24T02:48:49.088Z,5.07
2023-09-24T02:51:15.663Z,6.70
2023-09-24T02:53:43.349Z,5.47
2023-09-24T02:56:09.980Z,6.10
2023-09-24T02:58:36.781Z,7.78
2023-09-24T03:01:05.621Z,5.15
2023-09-24T03:03:32.267Z,6.53
2023-09-24T03:05:59.033Z,5.22
2023-09-24T03:08:27.769Z,6.85
2023-09-24T03:10:55.191Z,5.22
2023-09-24T03:13:22.141Z,5.60
2023-09-24T03:15:49.380Z,4.80
2023-09-24T03:18:16.008Z,4.97
2023-09-24T03:20:44.999Z,5.75
2023-09-24T03:23:11.799Z,3.92
2023-09-24T03:25:38.834Z,4.60
2023-09-24T03:28:05.698Z,5.60
2023-09-24T03:30:32.399Z,8.00
2023-09-24T03:33:00.433Z,6.53
2023-09-24T03:35:28.561Z,6.03
2023-09-24T03:37:56.289Z,4.28
2023-09-24T03:40:25.916Z,6.17
2023-09-24T03:42:52.859Z,4.85
2023-09-24T03:45:21.407Z,6.75
2023-09-24T03:47:48.464Z,6.35
2023-09-24T03:50:18.293Z,4.68
2023-09-24T03:52:46.573Z,5.53
2023-09-24T03:55:13.653Z,5.60
2023-09-24T03:57:40.643Z,6.50
2023-09-24T04:00:19.394Z,5.85
2023-09-24T04:02:53.231Z,7.45
2023-09-24T04:05:25.151Z,4.60
2023-09-24T04:07:54.665Z,5.28
2023-09-24T04:10:24.190Z,5.57
2023-09-24T04:12:52.147Z,5.22
2023-09-24T04:15:24.366Z,8.10
2023-09-24T04:17:51.606Z,4.13
2023-09-24T04:20:20.873Z,5.10
2023-09-24T04:22:48.379Z,6.80
2023-09-24T04:25:16.683Z,7.03
2023-09-24T04:27:43.777Z,4.60
2023-09-24T04:30:12.840Z,6.33
2023-09-24T04:32:39.925Z,4.50
2023-09-24T04:35:07.107Z,7.65
2023-09-24T04:37:33.737Z,7.25
2023-09-24T04:40:00.382Z,4.80
2023-09-24T04:42:26.952Z,7.90
2023-09-24T04:44:53.651Z,6.38
2023-09-24T04:47:20.260Z,6.30
2023-09-24T04:49:48.068Z,7.63
2023-09-24T04:52:14.610Z,6.00
2023-09-24T04:54:41.177Z,5.43
2023-09-24T04:57:09.122Z,5.07
2023-09-24T04:59:35.876Z,7.18
2023-09-24T05:02:02.428Z,5.72
2023-09-24T05:04:29.125Z,7.80
2023-09-24T05:06:55.888Z,5.73
2023-09-24T05:09:26.518Z,4.95
2023-09-24T05:11:55.170Z,5.20
2023-09-24T05:14:22.001Z,6.30
2023-09-24T05:16:52.306Z,5.55
2023-09-24T05:19:19.088Z,6.67
2023-09-24T05:21:46.036Z,5.10
2023-09-24T05:24:12.806Z,8.05
2023-09-24T05:26:39.460Z,6.63
2023-09-24T05:29:06.082Z,7.13
2023-09-24T05:31:32.578Z,9.47
2023-09-24T05:33:59.532Z,8.45
2023-09-24T05:36:26.160Z,4.78
2023-09-24T05:38:52.742Z,4.80
2023-09-24T05:41:19.309Z,5.55
2023-09-24T05:43:46.923Z,9.13
2023-09-24T05:46:13.591Z,13.35
2023-09-24T05:48:40.257Z,11.77
2023-09-24T05:51:08.384Z,10.30
2023-09-24T05:53:35.152Z,5.82
2023-09-24T05:56:03.285Z,7.87
2023-09-24T05:58:29.881Z,9.40
2023-09-24T06:00:57.300Z,7.90
2023-09-24T06:03:24.146Z,8.60
2023-09-24T06:05:50.930Z,7.10
2023-09-24T06:08:17.546Z,7.23
2023-09-24T06:10:46.031Z,7.93
2023-09-24T06:13:19.614Z,7.38
2023-09-24T06:15:46.331Z,6.30
2023-09-24T06:18:13.870Z,6.65
2023-09-24T06:20:42.362Z,6.57
2023-09-24T06:23:10.010Z,6.82
2023-09-24T06:25:36.665Z,4.95
2023-09-24T06:28:05.616Z,6.72
2023-09-24T06:30:32.253Z,5.75
2023-09-24T06:32:59.009Z,6.67
2023-09-24T06:35:25.722Z,5.50
2023-09-24T06:37:52.308Z,8.68
2023-09-24T06:40:19.135Z,5.85
2023-09-24T06:42:47.018Z,6.05
2023-09-24T06:45:13.818Z,6.00
2023-09-24T06:47:40.541Z,6.75
2023-09-24T06:50:07.776Z,8.25
2023-09-24T06:52:34.332Z,7.43
2023-09-24T06:55:01.169Z,5.45
2023-09-24T06:57:27.642Z,5.50
2023-09-24T06:59:55.395Z,7.47
2023-09-24T07:02:22.061Z,6.43
2023-09-24T07:04:50.055Z,7.03
2023-09-24T07:07:16.724Z,5.32
2023-09-24T07:09:43.626Z,7.83
2023-09-24T07:12:11.349Z,7.90
2023-09-24T07:14:37.952Z,6.82
2023-09-24T07:17:04.537Z,6.85
2023-09-24T07:19:31.136Z,6.85
2023-09-24T07:21:58.506Z,6.37
2023-09-24T07:24:25.900Z,6.95
2023-09-24T07:26:52.775Z,9.27
2023-09-24T07:29:19.413Z,7.28
2023-09-24T07:31:46.095Z,5.43
2023-09-24T07:34:12.729Z,7.23
2023-09-24T07:36:52.637Z,6.40
2023-09-24T07:39:24.605Z,5.78
2023-09-24T07:41:51.724Z,5.97
2023-09-24T07:44:19.812Z,7.18
2023-09-24T07:46:46.983Z,8.03
2023-09-24T07:49:13.879Z,5.13
2023-09-24T07:51:40.485Z,5.63
2023-09-24T07:54:08.140Z,4.13
2023-09-24T07:56:35.634Z,7.38
2023-09-24T07:59:03.764Z,8.43
2023-09-24T08:01:30.845Z,4.75
2023-09-24T08:03:57.532Z,4.78
2023-09-24T08:06:24.801Z,5.18
2023-09-24T08:09:00.043Z,4.15
2023-09-24T08:11:33.715Z,4.10
2023-09-24T08:14:00.373Z,4.35
2023-09-24T08:16:27.743Z,4.45
2023-09-24T08:18:54.740Z,3.45
2023-09-24T08:21:21.493Z,4.05
2023-09-24T08:23:48.953Z,3.70
2023-09-24T08:26:15.923Z,3.25
2023-09-24T08:28:43.218Z,2.70
2023-09-24T08:31:12.079Z,4.95
2023-09-24T08:33:38.775Z,9.85
2023-09-24T08:36:10.253Z,5.07
2023-09-24T08:38:36.869Z,5.22
2023-09-24T08:41:11.321Z,4.32
2023-09-24T08:43:40.580Z,3.45
2023-09-24T08:46:09.663Z,5.13
2023-09-24T08:48:38.018Z,3.40
2023-09-24T08:51:05.357Z,5.95
2023-09-24T08:53:33.596Z,1.77
2023-09-24T08:56:01.620Z,3.47
2023-09-24T08:58:29.145Z,2.60
2023-09-24T09:00:55.714Z,4.57
2023-09-24T09:03:22.856Z,6.55
2023-09-24T09:05:50.838Z,4.35
2023-09-24T09:08:17.428Z,4.80
2023-09-24T09:10:44.074Z,3.40
2023-09-24T09:13:15.004Z,3.37
2023-09-24T09:15:43.542Z,1.98
2023-09-24T09:18:25.876Z,3.35
2023-09-24T09:21:00.064Z,3.17
2023-09-24T09:23:34.822Z,3.00
2023-09-24T09:26:02.859Z,2.40
2023-09-24T09:28:33.670Z,4.53
2023-09-24T09:31:15.151Z,2.40
2023-09-24T09:33:44.672Z,4.18
2023-09-24T09:36:31.304Z,2.38
2023-09-24T09:38:59.788Z,2.57
2023-09-24T09:41:27.575Z,2.60
2023-09-24T09:43:54.961Z,3.63
2023-09-24T09:46:24.524Z,2.30
2023-09-24T09:48:56.704Z,4.80
2023-09-24T09:51:25.346Z,3.67
2023-09-24T09:53:54.923Z,3.60
2023-09-24T09:56:24.007Z,1.30
2023-09-24T09:58:52.623Z,2.55
2023-09-24T10:01:22.394Z,2.35
2023-09-24T10:03:52.507Z,3.63
2023-09-24T10:06:20.101Z,2.03
2023-09-24T10:08:49.174Z,3.15
2023-09-24T10:11:32.319Z,3.40
2023-09-24T10:14:00.473Z,1.25
2023-09-24T10:16:27.000Z,3.23
2023-09-24T10:18:57.519Z,3.45
2023-09-24T10:21:31.657Z,3.78
2023-09-24T10:24:00.266Z,3.90
2023-09-24T10:26:46.567Z,3.10
2023-09-24T10:29:13.134Z,2.13
2023-09-24T10:32:08.394Z,1.55
2023-09-24T10:34:56.516Z,2.63
2023-09-24T10:37:31.982Z,2.30
2023-09-24T10:40:06.595Z,2.00
2023-09-24T10:42:35.446Z,1.40
2023-09-24T10:45:08.430Z,7.75
2023-09-24T10:47:43.998Z,5.05
2023-09-24T10:50:15.834Z,3.60
2023-09-24T10:52:49.678Z,3.72
2023-09-24T10:55:17.740Z,1.43
2023-09-24T10:57:47.771Z,1.98
2023-09-24T11:00:17.775Z,3.33
2023-09-24T11:02:45.566Z,2.40
2023-09-24T11:05:13.387Z,4.10
2023-09-24T11:07:39.977Z,6.27
2023-09-24T11:10:07.036Z,2.92
2023-09-24T11:12:33.593Z,3.55
2023-09-24T11:15:15.288Z,3.42
2023-09-24T11:17:45.993Z,2.40
2023-09-24T11:20:13.599Z,4.13
2023-09-24T11:22:40.676Z,1.67
2023-09-24T11:25:11.552Z,2.60
2023-09-24T11:27:57.490Z,3.92
2023-09-24T11:30:28.653Z,1.85
2023-09-24T11:32:55.362Z,2.03
2023-09-24T11:35:26.324Z,4.30
2023-09-24T11:38:00.210Z,2.45
2023-09-24T11:40:35.708Z,1.95
2023-09-24T11:43:09.612Z,2.55
2023-09-24T11:45:43.969Z,3.83
2023-09-24T11:48:14.469Z,3.58
2023-09-24T11:50:44.780Z,2.15
2023-09-24T11:53:11.778Z,5.53
2023-09-24T11:55:39.710Z,5.18
2023-09-24T11:58:07.298Z,2.07
2023-09-24T12:00:36.650Z,1.83
2023-09-24T12:03:05.121Z,2.33
2023-09-24T12:05:34.362Z,1.40
2023-09-24T12:08:02.886Z,2.60
2023-09-24T12:10:29.555Z,1.87
2023-09-24T12:13:02.147Z,2.80
2023-09-24T12:15:31.071Z,3.10
2023-09-24T12:17:58.623Z,1.17
2023-09-24T12:20:25.401Z,1.48
2023-09-24T12:22:51.941Z,2.47
2023-09-24T12:25:18.798Z,2.15
2023-09-24T12:27:45.643Z,0.98
2023-09-24T12:30:13.812Z,1.88
2023-09-24T12:32:41.138Z,2.72
2023-09-24T12:35:09.975Z,1.60
2023-09-24T12:37:37.223Z,1.55
2023-09-24T12:40:08.552Z,2.38
2023-09-24T12:42:36.656Z,2.00
2023-09-24T12:45:04.943Z,2.15
2023-09-24T12:47:34.224Z,2.20
2023-09-24T12:50:04.785Z,3.03
2023-09-24T12:52:36.622Z,2.13
2023-09-24T12:55:05.024Z,3.40
2023-09-24T12:57:31.907Z,2.95
2023-09-24T12:59:58.913Z,2.10
2023-09-24T13:02:26.486Z,2.00
2023-09-24T13:04:55.412Z,2.42
2023-09-24T13:07:22.012Z,3.05
2023-09-24T13:09:48.624Z,1.63
2023-09-24T13:12:16.488Z,2.03
2023-09-24T13:14:43.423Z,1.67
2023-09-24T13:17:10.594Z,2.30
2023-09-24T13:19:37.747Z,2.63
2023-09-24T13:22:04.320Z,1.70
2023-09-24T13:24:30.858Z,2.00
2023-09-24T13:26:57.404Z,2.13
2023-09-24T13:29:24.965Z,2.03
2023-09-24T13:31:53.166Z,1.38
2023-09-24T13:34:19.626Z,2.25
2023-09-24T13:36:46.206Z,1.53
2023-09-24T13:39:14.277Z,3.00
2023-09-24T13:41:40.880Z,2.63
2023-09-24T13:44:09.426Z,1.50
2023-09-24T13:46:36.145Z,1.40
2023-09-24T13:49:05.410Z,4.83
2023-09-24T13:51:36.549Z,2.38
2023-09-24T13:54:04.208Z,1.48
2023-09-24T13:56:30.937Z,2.47
2023-09-24T13:58:58.512Z,1.98
2023-09-24T14:01:25.460Z,0.97
2023-09-24T14:03:54.553Z,1.73
2023-09-24T14:06:21.748Z,2.17
2023-09-24T14:09:06.919Z,2.60
2023-09-24T14:11:52.003Z,1.63
2023-09-24T14:14:18.782Z,0.97
2023-09-24T14:16:48.754Z,2.35
2023-09-24T14:19:16.178Z,2.47
2023-09-24T14:21:42.983Z,1.40
2023-09-24T14:24:10.028Z,1.48
2023-09-24T14:26:36.628Z,1.10
2023-09-24T14:29:03.469Z,2.15
2023-09-24T14:31:30.193Z,1.52
2023-09-24T14:33:56.955Z,1.20
2023-09-24T14:36:23.871Z,2.03
2023-09-24T14:38:51.054Z,2.10
2023-09-24T14:41:19.091Z,2.20
2023-09-24T14:43:47.084Z,3.08
2023-09-24T14:46:13.930Z,1.55
2023-09-24T14:48:40.657Z,1.30
2023-09-24T14:56:50.265Z,1.52
2023-09-24T14:59:17.870Z,1.35
2023-09-24T15:01:53.568Z,1.65
2023-09-24T15:04:29.617Z,1.03
2023-09-24T15:07:01.276Z,1.63
2023-09-24T15:09:51.732Z,1.45
2023-09-24T15:12:33.338Z,1.20
2023-09-24T15:15:03.538Z,2.70
2023-09-24T15:17:30.234Z,1.33
2023-09-24T15:19:57.342Z,1.02
2023-09-24T15:22:27.969Z,1.60
2023-09-24T15:25:02.874Z,1.65
2023-09-24T15:31:21.548Z,3.00
2023-09-24T15:36:38.453Z,2.95
2023-09-24T15:39:05.256Z,1.38
2023-09-24T15:41:33.304Z,2.95
2023-09-24T15:44:31.864Z,2.33
2023-09-24T15:49:43.452Z,1.33
2023-09-24T15:52:10.182Z,2.85
2023-09-24T15:57:37.569Z,7.67
2023-09-24T16:00:10.636Z,3.88
2023-09-24T16:02:40.825Z,4.15
2023-09-24T16:05:10.209Z,3.88
2023-09-24T16:07:37.527Z,2.55
2023-09-24T16:10:05.396Z,5.13
2023-09-24T16:12:34.695Z,3.08
2023-09-24T16:15:01.771Z,1.88
2023-09-24T16:17:28.731Z,1.48
2023-09-24T16:19:55.342Z,2.20
2023-09-24T16:22:22.041Z,2.07
2023-09-24T16:24:51.952Z,1.75
2023-09-24T16:27:18.995Z,2.88
2023-09-24T16:29:45.715Z,2.10
2023-09-24T16:32:12.451Z,2.20
2023-09-24T16:34:40.249Z,2.43
2023-09-24T16:37:06.881Z,3.97
2023-09-24T16:39:34.423Z,1.52
2023-09-24T16:42:01.144Z,1.33
2023-09-24T16:44:29.723Z,1.52
2023-09-24T16:46:56.668Z,1.20
2023-09-24T16:49:23.367Z,3.42
2023-09-24T16:51:51.114Z,2.05
2023-09-24T16:54:23.300Z,2.92
2023-09-24T16:56:49.997Z,2.92
2023-09-24T16:59:17.670Z,2.00
2023-09-24T17:01:44.869Z,2.20
2023-09-24T17:04:12.066Z,0.80
2023-09-24T17:06:39.862Z,3.15
2023-09-24T17:09:06.539Z,3.72
2023-09-24T17:11:34.330Z,2.77
2023-09-24T17:14:00.962Z,2.25
2023-09-24T17:16:27.625Z,1.20
2023-09-24T17:18:54.349Z,2.28
2023-09-24T17:21:20.989Z,2.15
2023-09-24T17:23:47.998Z,1.70
2023-09-24T17:26:17.243Z,4.07
2023-09-24T17:28:44.279Z,2.80
2023-09-24T17:31:13.414Z,1.00
2023-09-24T17:33:40.995Z,5.75
2023-09-24T17:36:10.838Z,2.93
2023-09-24T17:38:38.247Z,2.78
2023-09-24T17:41:04.876Z,2.53
2023-09-24T17:43:31.628Z,2.95
2023-09-24T17:46:02.816Z,3.70
2023-09-24T17:48:29.611Z,4.53
2023-09-24T17:51:04.667Z,3.65
2023-09-24T17:53:31.308Z,4.05
2023-09-24T17:55:59.791Z,2.72
2023-09-24T17:58:27.245Z,4.80
2023-09-24T18:01:05.649Z,2.17
2023-09-24T18:03:34.055Z,2.45
2023-09-24T18:06:00.934Z,2.63
2023-09-24T18:08:29.295Z,3.42
2023-09-24T18:10:58.908Z,4.82
2023-09-24T18:13:26.092Z,2.90
2023-09-24T18:15:55.224Z,3.90
2023-09-24T18:18:25.015Z,2.75
2023-09-24T18:20:54.396Z,2.40
2023-09-24T18:23:21.205Z,4.97
2023-09-24T18:25:48.517Z,3.83
2023-09-24T18:28:15.920Z,3.90
2023-09-24T18:30:42.766Z,3.42
2023-09-24T18:33:10.244Z,4.80
2023-09-24T18:35:38.941Z,4.47
2023-09-24T18:38:07.423Z,4.60
2023-09-24T18:40:39.843Z,6.85
2023-09-24T18:43:07.008Z,5.82
2023-09-24T18:45:34.894Z,2.92
2023-09-24T18:48:01.755Z,5.15
2023-09-24T18:50:30.772Z,5.17
2023-09-24T18:52:57.458Z,4.32
2023-09-24T18:55:24.494Z,3.35
2023-09-24T18:57:51.153Z,3.00
2023-09-24T19:00:17.918Z,3.40
2023-09-24T19:02:45.085Z,2.27
2023-09-24T19:05:14.300Z,2.65
2023-09-24T19:07:40.873Z,2.10
2023-09-24T19:10:14.476Z,2.85
2023-09-24T19:12:44.480Z,3.22
2023-09-24T19:15:12.222Z,2.23
2023-09-24T19:17:39.981Z,2.45
2023-09-24T19:20:07.942Z,1.70
2023-09-24T19:22:35.403Z,1.90
2023-09-24T19:25:02.538Z,2.05
2023-09-24T19:27:29.290Z,1.67
2023-09-24T19:29:57.784Z,1.95
2023-09-24T19:32:27.013Z,3.05
2023-09-24T19:34:54.130Z,3.55
2023-09-24T19:37:20.898Z,2.38
2023-09-24T19:39:47.639Z,2.27
2023-09-24T19:42:14.350Z,1.42
2023-09-24T19:44:41.180Z,2.60
2023-09-24T19:47:08.105Z,1.63
2023-09-24T19:49:34.893Z,2.42
2023-09-24T19:52:01.595Z,2.70
2023-09-24T19:54:30.975Z,4.20
2023-09-24T19:56:59.663Z,2.28
2023-09-24T19:59:26.447Z,2.60
2023-09-24T20:01:53.335Z,2.42
2023-09-24T20:04:19.980Z,3.27
2023-09-24T20:06:47.606Z,1.98
2023-09-24T20:09:15.919Z,1.58
2023-09-24T20:11:44.788Z,2.38
2023-09-24T20:14:11.665Z,1.98
2023-09-24T20:16:39.329Z,2.00
2023-09-24T20:19:08.262Z,2.95
2023-09-24T20:21:35.573Z,2.20
2023-09-24T20:24:08.396Z,2.00
2023-09-24T20:26:39.965Z,3.47
2023-09-24T20:29:09.714Z,3.10
2023-09-24T20:31:37.488Z,2.53
2023-09-24T20:34:05.638Z,3.20
2023-09-24T20:36:33.723Z,2.15
2023-09-24T20:39:07.260Z,2.47
2023-09-24T20:41:36.522Z,3.20
2023-09-24T20:44:03.978Z,4.20
2023-09-24T20:46:38.023Z,3.95
2023-09-24T20:49:05.401Z,2.22
2023-09-24T20:51:32.407Z,3.33
2023-09-24T20:53:59.134Z,4.87
2023-09-24T20:56:25.979Z,3.10
2023-09-24T20:58:53.278Z,2.38
2023-09-24T21:01:20.006Z,2.45
2023-09-24T21:03:47.189Z,4.03
2023-09-24T21:06:14.549Z,3.27
2023-09-24T21:08:41.188Z,2.70
2023-09-24T21:11:07.779Z,4.95
2023-09-24T21:13:35.819Z,2.80
2023-09-24T21:16:03.131Z,3.78
2023-09-24T21:18:29.949Z,2.43
2023-09-24T21:20:56.537Z,4.25
2023-09-24T21:23:24.598Z,3.60
2023-09-24T21:25:51.157Z,3.47
2023-09-24T21:28:17.700Z,2.13
2023-09-24T21:30:44.375Z,2.70
2023-09-24T21:33:12.584Z,5.05
2023-09-24T21:35:39.218Z,3.92
2023-09-24T21:38:05.866Z,4.68
2023-09-24T21:40:32.395Z,3.25
2023-09-24T21:42:58.910Z,2.47
2023-09-24T21:45:25.611Z,2.78
2023-09-24T21:47:52.196Z,1.88
2023-09-24T21:50:18.776Z,2.67
2023-09-24T21:52:45.273Z,3.30
2023-09-24T21:55:11.949Z,2.33
2023-09-24T21:57:38.489Z,4.40
2023-09-24T22:00:14.022Z,4.32
2023-09-24T22:02:42.183Z,2.78
2023-09-24T22:05:09.157Z,4.15
2023-09-24T22:07:35.794Z,3.27
2023-09-24T22:10:02.798Z,1.90
2023-09-24T22:12:29.463Z,3.08
2023-09-24T22:14:56.231Z,4.30
2023-09-24T22:17:23.056Z,3.65
2023-09-24T22:19:49.542Z,2.73
2023-09-24T22:22:16.087Z,2.55
2023-09-24T22:24:43.777Z,2.50
2023-09-24T22:27:10.530Z,2.40
2023-09-24T22:29:37.118Z,1.70
2023-09-24T22:32:04.003Z,3.77
2023-09-24T22:34:30.638Z,3.53
2023-09-24T22:36:57.146Z,3.22
2023-09-24T22:39:23.713Z,2.33
2023-09-24T22:41:51.250Z,1.90
2023-09-24T22:44:17.871Z,2.10
2023-09-24T22:46:44.557Z,4.05
2023-09-24T22:49:11.105Z,3.88
2023-09-24T22:51:37.778Z,2.40
2023-09-24T22:54:04.452Z,2.25
2023-09-24T22:56:31.034Z,1.43
2023-09-24T22:58:58.744Z,1.92
2023-09-24T23:01:25.359Z,9.80
2023-09-24T23:03:52.369Z,2.85
2023-09-24T23:06:19.065Z,2.13
2023-09-24T23:08:45.622Z,2.53
2023-09-24T23:11:12.158Z,1.90
2023-09-24T23:13:38.747Z,2.67
2023-09-24T23:16:05.377Z,2.22
2023-09-24T23:18:32.251Z,3.50
2023-09-24T23:20:59.571Z,2.70
2023-09-24T23:23:26.253Z,2.50
2023-09-24T23:25:53.739Z,3.00
2023-09-24T23:28:20.388Z,1.75
2023-09-24T23:30:47.087Z,1.50
2023-09-24T23:33:14.270Z,2.87
2023-09-24T23:35:41.444Z,4.78
2023-09-24T23:38:08.703Z,1.77
2023-09-24T23:40:35.622Z,3.95
2023-09-24T23:43:02.946Z,3.30
2023-09-24T23:45:36.729Z,3.23
2023-09-24T23:48:08.102Z,2.15
2023-09-24T23:50:36.627Z,1.50
2023-09-24T23:53:04.404Z,1.92
2023-09-24T23:55:31.924Z,1.98
2023-09-24T23:58:06.665Z,2.63
